createdAt,value
2018-11-07T00:03:17.860Z,12.4
2018-11-07T00:08:20.259Z,12.4
2018-11-07T00:13:22.406Z,12.3
2018-11-07T00:18:24.616Z,12.2
2018-11-07T00:23:26.867Z,12.2
2018-11-07T00:28:30.280Z,12.1
2018-11-07T00:33:34.360Z,12
2018-11-07T00:43:36.106Z,11.9
2018-11-07T00:48:40.578Z,11.7
2018-11-07T00:53:40.642Z,11.6
2018-11-07T00:58:42.937Z,11.5
2018-11-07T01:03:45.367Z,11.5
2018-11-07T01:08:47.603Z,11.5
2018-11-07T01:13:49.891Z,11.5
2018-11-07T01:18:52.123Z,11.4
2018-11-07T01:23:54.476Z,11.4
2018-11-07T01:28:56.718Z,11.3
2018-11-07T01:34:00.368Z,11.3
2018-11-07T01:39:01.357Z,11.3
2018-11-07T01:44:03.545Z,11.2
2018-11-07T01:49:06.067Z,11.2
2018-11-07T01:54:08.237Z,11.1
2018-11-07T01:59:11.521Z,11.1
2018-11-07T02:04:14.012Z,10.9
2018-11-07T02:09:16.683Z,10.9
2018-11-07T02:14:17.423Z,10.8
2018-11-07T02:19:19.620Z,10.7
2018-11-07T02:24:21.947Z,10.6
2018-11-07T02:29:24.344Z,10.6
2018-11-07T02:34:26.487Z,10.5
2018-11-07T02:39:28.799Z,10.4
2018-11-07T02:44:31.080Z,10.3
2018-11-07T02:49:33.479Z,10.3
2018-11-07T02:54:35.660Z,10.3
2018-11-07T02:59:37.995Z,10.2
2018-11-07T03:04:42.131Z,10.2
2018-11-07T03:09:42.612Z,10.2
2018-11-07T03:14:44.918Z,10.1
2018-11-07T03:19:48.175Z,10
2018-11-07T03:24:49.508Z,10
2018-11-07T03:29:51.868Z,10
2018-11-07T03:34:54.226Z,10
2018-11-07T03:39:56.567Z,9.9
2018-11-07T03:44:58.788Z,9.9
2018-11-07T03:50:01.064Z,9.9
2018-11-07T03:55:03.184Z,9.9
2018-11-07T04:00:05.538Z,9.9
2018-11-07T04:05:07.839Z,9.9
2018-11-07T04:10:10.080Z,9.9
2018-11-07T04:15:12.494Z,9.9
2018-11-07T04:20:14.851Z,9.9
2018-11-07T04:25:17.009Z,9.8
2018-11-07T04:30:19.310Z,9.7
2018-11-07T04:35:21.717Z,9.7
2018-11-07T04:40:23.987Z,9.6
2018-11-07T04:45:26.214Z,9.5
2018-11-07T04:50:28.602Z,9.4
2018-11-07T04:55:31.048Z,9.4
2018-11-07T05:00:33.090Z,9.3
2018-11-07T05:05:35.376Z,9.3
2018-11-07T05:10:37.750Z,9.2
2018-11-07T05:15:41.528Z,9.1
2018-11-07T05:20:43.511Z,9.1
2018-11-07T05:25:44.672Z,9.1
2018-11-07T05:30:46.785Z,9
2018-11-07T05:35:49.089Z,9
2018-11-07T05:40:51.430Z,9
2018-11-07T05:45:53.897Z,9
2018-11-07T05:50:56.023Z,9
2018-11-07T05:55:58.253Z,9.1
2018-11-07T06:01:00.659Z,9.1
2018-11-07T06:06:02.978Z,9
2018-11-07T06:11:05.262Z,9
2018-11-07T06:16:07.605Z,8.9
2018-11-07T06:21:09.921Z,8.9
2018-11-07T06:26:13.021Z,8.9
2018-11-07T06:31:14.512Z,9
2018-11-07T06:36:16.667Z,9
2018-11-07T06:41:18.984Z,9.1
2018-11-07T06:46:21.248Z,9.1
2018-11-07T06:51:23.699Z,9.2
2018-11-07T06:56:25.835Z,9.2
2018-11-07T07:01:28.221Z,9.3
2018-11-07T07:06:30.384Z,9.4
2018-11-07T07:11:32.749Z,9.5
2018-11-07T07:16:34.951Z,9.6
2018-11-07T07:21:37.311Z,9.7
2018-11-07T07:26:39.600Z,9.7
2018-11-07T07:31:41.952Z,9.7
2018-11-07T07:36:44.143Z,9.7
2018-11-07T07:41:46.540Z,9.9
2018-11-07T07:46:48.791Z,10
2018-11-07T07:51:51.095Z,10.2
2018-11-07T07:56:53.433Z,10.4
2018-11-07T08:01:55.725Z,10.7
2018-11-07T08:06:58.180Z,10.9
2018-11-07T08:12:01.286Z,10.9
2018-11-07T08:17:02.661Z,11
2018-11-07T08:22:04.931Z,11
2018-11-07T08:27:07.132Z,11
2018-11-07T08:32:09.513Z,11.1
2018-11-07T08:37:11.795Z,11.2
2018-11-07T08:42:14.189Z,11.3
2018-11-07T08:47:16.270Z,11.3
2018-11-07T08:52:18.582Z,11.4
2018-11-07T08:57:21.032Z,11.4
2018-11-07T09:02:23.187Z,11.5
2018-11-07T09:07:25.613Z,11.6
2018-11-07T09:12:27.758Z,11.6
2018-11-07T09:17:30.170Z,11.7
2018-11-07T09:22:32.564Z,11.8
2018-11-07T09:27:34.582Z,11.8
2018-11-07T09:32:37.064Z,11.8
2018-11-07T09:37:39.296Z,11.7
2018-11-07T09:42:41.586Z,11.7
2018-11-07T09:47:43.990Z,11.7
2018-11-07T09:52:46.246Z,11.7
2018-11-07T09:57:48.356Z,11.8
2018-11-07T10:02:50.859Z,11.8
2018-11-07T10:07:53.013Z,11.9
2018-11-07T10:12:55.272Z,12
2018-11-07T10:17:57.635Z,12.1
2018-11-07T10:22:59.830Z,12.3
2018-11-07T10:28:02.514Z,12.4
2018-11-07T10:33:04.597Z,12.5
2018-11-07T10:38:06.876Z,12.6
2018-11-07T10:43:09.188Z,12.7
2018-11-07T10:48:11.331Z,12.7
2018-11-07T10:53:13.655Z,12.7
2018-11-07T10:58:15.917Z,12.8
2018-11-07T11:03:18.365Z,12.8
2018-11-07T11:08:20.663Z,12.8
2018-11-07T11:13:22.858Z,12.9
2018-11-07T11:18:25.044Z,12.9
2018-11-07T11:23:27.553Z,12.8
2018-11-07T11:28:29.824Z,12.8
2018-11-07T11:33:32.087Z,12.8
2018-11-07T11:38:34.361Z,12.9
2018-11-07T11:43:36.532Z,12.9
2018-11-07T11:48:38.898Z,12.9
2018-11-07T11:53:41.192Z,13
2018-11-07T11:58:43.579Z,13.1
2018-11-07T12:03:45.892Z,13.1
2018-11-07T12:08:48.116Z,13.1
2018-11-07T12:13:50.390Z,13.1
2018-11-07T12:18:54.213Z,13.1
2018-11-07T12:23:54.912Z,13.1
2018-11-07T12:28:57.273Z,13.1
2018-11-07T12:33:59.552Z,13.1
2018-11-07T12:39:01.943Z,13
2018-11-07T12:44:04.058Z,12.9
2018-11-07T12:49:06.690Z,12.8
2018-11-07T12:54:08.791Z,12.7
2018-11-07T12:59:11.025Z,12.6
2018-11-07T13:04:14.497Z,12.3
2018-11-07T13:09:15.576Z,12.1
2018-11-07T13:14:17.874Z,11.8
2018-11-07T13:19:20.244Z,11.6
2018-11-07T13:24:22.476Z,11.5
2018-11-07T13:29:24.772Z,11.3
2018-11-07T13:34:27.225Z,11.2
2018-11-07T13:39:29.326Z,11.1
2018-11-07T13:44:31.739Z,11.1
2018-11-07T13:49:35.045Z,11
2018-11-07T13:54:36.233Z,11
2018-11-07T13:59:38.542Z,11
2018-11-07T14:04:40.929Z,10.9
2018-11-07T14:09:43.132Z,10.9
2018-11-07T14:14:45.485Z,10.8
2018-11-07T14:19:47.746Z,10.8
2018-11-07T14:24:50.008Z,10.8
2018-11-07T14:29:56.654Z,10.8
2018-11-07T14:34:54.655Z,10.8
2018-11-07T14:39:56.926Z,10.9
2018-11-07T14:44:59.173Z,10.9
2018-11-07T14:50:01.483Z,10.9
2018-11-07T14:55:03.794Z,11
2018-11-07T15:00:06.127Z,11
2018-11-07T15:05:08.446Z,11
2018-11-07T15:10:10.668Z,11
2018-11-07T15:15:13.084Z,11.1
2018-11-07T15:20:15.265Z,11.1
2018-11-07T15:25:17.586Z,11.1
2018-11-07T15:30:19.822Z,11.1
2018-11-07T15:35:22.083Z,11.1
2018-11-07T15:40:24.382Z,11.2
2018-11-07T15:45:26.844Z,11.1
2018-11-07T15:50:29.036Z,11.1
2018-11-07T15:55:31.309Z,11.2
2018-11-07T16:00:33.580Z,11.2
2018-11-07T16:05:35.928Z,11.2
2018-11-07T16:10:38.384Z,11.3
2018-11-07T16:15:41.639Z,11.2
2018-11-07T16:20:45.054Z,11.3
2018-11-07T16:25:45.233Z,11.3
2018-11-07T16:30:48.486Z,11.3
2018-11-07T16:35:49.711Z,11.4
2018-11-07T16:40:52.150Z,11.4
2018-11-07T16:45:54.316Z,11.4
2018-11-07T16:50:56.523Z,11.5
2018-11-07T16:55:58.761Z,11.5
2018-11-07T17:01:01.256Z,11.5
2018-11-07T17:06:03.442Z,11.5
2018-11-07T17:11:05.731Z,11.4
2018-11-07T17:16:07.957Z,11.4
2018-11-07T17:21:10.430Z,11.4
2018-11-07T17:26:12.637Z,11.4
2018-11-07T17:31:14.934Z,11.4
2018-11-07T17:36:17.321Z,11.4
2018-11-07T17:41:19.481Z,11.4
2018-11-07T17:46:21.760Z,11.3
2018-11-07T17:51:24.165Z,11.4
2018-11-07T17:56:28.275Z,11.5
2018-11-07T18:01:28.606Z,11.5
2018-11-07T18:06:30.941Z,11.4
2018-11-07T18:11:33.341Z,11.4
2018-11-07T18:16:35.584Z,11.4
2018-11-07T18:21:37.861Z,11.3
2018-11-07T18:26:40.160Z,11.2
2018-11-07T18:31:42.560Z,11.2
2018-11-07T18:36:44.777Z,11.2
2018-11-07T18:41:48.874Z,11.2
2018-11-07T18:46:49.252Z,11.1
2018-11-07T18:51:51.672Z,11.1
2018-11-07T18:56:53.931Z,11
2018-11-07T19:01:56.171Z,11
2018-11-07T19:06:59.556Z,11
2018-11-07T19:12:00.817Z,11
2018-11-07T19:17:03.074Z,11
2018-11-07T19:22:05.401Z,11
2018-11-07T19:27:07.648Z,11
2018-11-07T19:32:11.103Z,10.9
2018-11-07T19:37:14.045Z,10.9
2018-11-07T19:42:14.564Z,10.8
2018-11-07T19:47:16.988Z,10.8
2018-11-07T19:52:19.101Z,10.8
2018-11-07T19:57:21.400Z,10.7
2018-11-07T20:02:23.848Z,10.7
2018-11-07T20:07:26.144Z,10.7
2018-11-07T20:12:28.418Z,10.6
2018-11-07T20:17:30.592Z,10.6
2018-11-07T20:22:32.910Z,10.6
2018-11-07T20:27:35.171Z,10.6
2018-11-07T20:32:37.498Z,10.5
2018-11-07T20:37:39.799Z,10.5
2018-11-07T20:42:42.168Z,10.5
2018-11-07T20:47:44.464Z,10.5
2018-11-07T20:52:46.687Z,10.4
2018-11-07T20:57:49.044Z,10.4
2018-11-07T21:02:52.314Z,10.5
2018-11-07T21:07:53.504Z,10.5
2018-11-07T21:12:57.349Z,10.4
2018-11-07T21:18:02.252Z,10.4
2018-11-07T21:23:00.637Z,10.4
2018-11-07T21:28:05.760Z,10.3
2018-11-07T21:33:06.811Z,10.3
2018-11-07T21:38:07.433Z,10.4
2018-11-07T21:43:09.560Z,10.3
2018-11-07T21:48:12.912Z,10.3
2018-11-07T21:53:14.251Z,10.2
2018-11-07T21:58:16.507Z,10.1
2018-11-07T22:03:18.799Z,10.2
2018-11-07T22:08:21.005Z,10.2
2018-11-07T22:13:23.542Z,10.1
2018-11-07T22:18:25.658Z,10.2
2018-11-07T22:23:28.027Z,10.1
2018-11-07T22:28:30.285Z,10.1
2018-11-07T22:33:32.644Z,10.1
2018-11-07T22:38:34.902Z,10
2018-11-07T22:43:37.102Z,10
2018-11-07T22:48:40.794Z,10
2018-11-07T22:53:43.127Z,10
2018-11-07T22:58:48.098Z,10
2018-11-07T23:03:46.574Z,10
2018-11-07T23:13:52.154Z,10
2018-11-07T23:18:53.140Z,10
2018-11-07T23:23:55.518Z,10.1
2018-11-07T23:28:57.902Z,10
2018-11-07T23:34:00.044Z,10.1
2018-11-07T23:39:02.358Z,10.2
2018-11-07T23:44:04.625Z,10.3
2018-11-07T23:49:06.998Z,10.3
2018-11-07T23:54:09.369Z,10.3
2018-11-07T23:59:11.568Z,10.2
